Time;durP1;ratioP1;P1;durP2;ratioP2;P2;SDS_P1;SDS_P2;PMS_P1;PMS_P2;Temp;Humidity;BMP_temperature;BMP_pressure;BME280_temperature;BME280_humidity;BME280_pressure;Samples;Min_cycle;Max_cycle;Signal;HPM_P1;HPM_P2
2022/03/25 00:01:31;;;;;;;28.17;16.02;;;7.80;42.30;;;;;;4938033;29;20485;-78
2022/03/25 00:03:57;;;;;;;25.52;15.50;;;7.70;42.50;;;;;;4922232;29;20074;-79
2022/03/25 00:06:23;;;;;;;28.10;15.90;;;7.70;42.40;;;;;;4937444;29;20082;-78
2022/03/25 00:08:49;;;;;;;24.25;14.13;;;7.60;42.40;;;;;;4937900;29;20035;-79
2022/03/25 00:11:14;;;;;;;24.92;15.25;;;7.50;42.40;;;;;;4937653;29;20038;-78
2022/03/25 00:13:40;;;;;;;23.35;14.18;;;7.50;42.60;;;;;;4937815;29;20034;-79
2022/03/25 00:16:06;;;;;;;24.83;14.98;;;7.50;42.50;;;;;;4937794;29;20038;-79
2022/03/25 00:18:33;;;;;;;25.83;14.77;;;7.50;42.50;;;;;;4942314;29;20031;-78
2022/03/25 00:20:59;;;;;;;25.27;14.68;;;7.60;42.50;;;;;;4961540;29;20066;-79
2022/03/25 00:23:25;;;;;;;26.25;14.80;;;7.70;42.50;;;;;;4940109;29;20054;-77
2022/03/25 00:25:51;;;;;;;25.70;14.80;;;7.70;42.40;;;;;;4938016;29;20031;-77
2022/03/25 00:28:17;;;;;;;31.05;15.45;;;7.70;42.50;;;;;;4937993;29;20122;-76
2022/03/25 00:30:43;;;;;;;22.73;14.68;;;7.60;42.50;;;;;;4937941;29;20027;-78
2022/03/25 00:33:09;;;;;;;23.50;14.35;;;7.60;42.60;;;;;;4937471;29;20439;-78
2022/03/25 00:35:35;;;;;;;24.15;14.63;;;7.50;43.00;;;;;;4937936;29;20026;-77
2022/03/25 00:38:01;;;;;;;25.33;14.18;;;7.50;43.30;;;;;;4937532;29;20391;-77
2022/03/25 00:40:26;;;;;;;23.17;14.15;;;7.40;43.10;;;;;;4937453;29;20037;-77
2022/03/25 00:42:52;;;;;;;21.70;14.02;;;7.50;43.10;;;;;;4937195;29;20038;-76
2022/03/25 00:45:18;;;;;;;22.45;13.85;;;7.50;43.30;;;;;;4937615;29;20023;-77
2022/03/25 00:47:44;;;;;;;25.05;15.20;;;7.50;43.50;;;;;;4937521;29;20027;-77
2022/03/25 00:50:11;;;;;;;24.83;14.45;;;7.40;43.40;;;;;;4937279;29;20020;-76
2022/03/25 00:52:37;;;;;;;24.15;15.07;;;7.30;43.60;;;;;;4937748;29;20034;-76
2022/03/25 00:55:04;;;;;;;25.75;16.05;;;7.30;43.70;;;;;;4937530;29;20078;-76
2022/03/25 00:57:29;;;;;;;26.63;15.38;;;7.20;43.60;;;;;;4941254;29;20027;-76
2022/03/25 00:59:55;;;;;;;27.13;16.33;;;7.30;43.60;;;;;;4940990;29;20489;-76
2022/03/25 01:02:21;;;;;;;23.70;14.95;;;7.30;43.80;;;;;;4940802;29;20038;-76
2022/03/25 01:04:46;;;;;;;25.48;15.88;;;7.30;43.90;;;;;;4941016;29;20123;-74
2022/03/25 01:07:12;;;;;;;24.60;15.63;;;7.20;43.90;;;;;;4940897;29;20043;-76
2022/03/25 01:09:39;;;;;;;25.30;14.32;;;7.10;44.30;;;;;;4940957;29;20106;-78
2022/03/25 01:12:06;;;;;;;24.35;15.40;;;7.10;44.50;;;;;;4940722;29;20105;-78
2022/03/25 01:14:32;;;;;;;23.08;14.70;;;7.10;44.70;;;;;;4940626;29;20333;-77
2022/03/25 01:17:00;;;;;;;24.98;15.52;;;7.20;44.70;;;;;;4940996;29;20031;-77
2022/03/25 01:19:27;;;;;;;25.95;14.98;;;7.20;44.70;;;;;;4941065;29;20031;-77
2022/03/25 01:21:54;;;;;;;21.48;13.52;;;7.10;44.90;;;;;;4940934;29;20039;-77
2022/03/25 01:24:21;;;;;;;23.23;14.05;;;7.10;45.00;;;;;;4924750;29;20472;-77
2022/03/25 01:26:47;;;;;;;24.98;14.95;;;7.10;45.20;;;;;;4940869;29;20039;-77
2022/03/25 01:29:12;;;;;;;22.30;14.65;;;7.00;45.40;;;;;;4940820;29;20019;-78
2022/03/25 01:31:39;;;;;;;24.77;15.68;;;7.00;45.50;;;;;;4940601;29;20387;-76
2022/03/25 01:34:05;;;;;;;27.00;15.73;;;6.90;45.50;;;;;;4940427;29;20087;-76
2022/03/25 01:36:30;;;;;;;24.20;15.65;;;7.00;45.50;;;;;;4940531;29;20023;-77
2022/03/25 01:38:58;;;;;;;29.48;16.98;;;6.90;45.80;;;;;;4940668;29;20035;-76
2022/03/25 01:41:23;;;;;;;27.85;16.60;;;6.90;45.60;;;;;;4940332;29;20575;-77
2022/03/25 01:43:55;;;;;;;25.15;15.90;;;6.90;46.50;;;;;;4940378;29;20118;-77
2022/03/25 01:46:21;;;;;;;28.25;16.30;;;6.80;46.10;;;;;;4940046;29;20126;-76
2022/03/25 01:48:50;;;;;;;28.50;16.75;;;6.70;46.30;;;;;;4940179;29;20468;-76
2022/03/25 01:51:25;;;;;;;24.27;14.80;;;6.80;46.20;;;;;;4940126;29;20514;-78
2022/03/25 01:53:50;;;;;;;29.15;15.60;;;6.70;46.20;;;;;;4940031;29;20033;-77
2022/03/25 01:56:24;;;;;;;26.52;15.40;;;6.80;46.40;;;;;;4939739;29;20039;-78
2022/03/25 01:58:50;;;;;;;24.33;15.52;;;6.70;46.50;;;;;;4957410;29;20055;-78
2022/03/25 02:01:16;;;;;;;24.95;16.20;;;6.70;46.60;;;;;;4956939;29;20039;-79
2022/03/25 02:03:44;;;;;;;25.58;15.60;;;6.60;46.50;;;;;;4939800;29;20020;-77
2022/03/25 02:06:10;;;;;;;25.55;15.93;;;6.60;46.70;;;;;;4939619;28;20031;-76
2022/03/25 02:08:36;;;;;;;32.78;16.73;;;6.60;46.90;;;;;;4939610;29;20043;-76
2022/03/25 02:11:02;;;;;;;24.08;15.50;;;6.50;47.10;;;;;;4939756;29;20035;-76
2022/03/25 02:13:27;;;;;;;28.92;15.40;;;6.50;47.20;;;;;;4958897;29;20007;-77
2022/03/25 02:15:53;;;;;;;27.70;16.27;;;6.50;47.20;;;;;;4957140;29;20028;-76
2022/03/25 02:18:19;;;;;;;24.23;15.85;;;6.50;47.20;;;;;;4939637;29;20079;-77
2022/03/25 02:20:47;;;;;;;27.42;15.63;;;6.50;47.40;;;;;;4955654;29;20039;-78
2022/03/25 02:23:13;;;;;;;29.55;17.20;;;6.40;47.30;;;;;;4940062;29;20122;-78
2022/03/25 02:25:40;;;;;;;31.17;17.65;;;6.40;47.50;;;;;;4939798;29;20024;-77
2022/03/25 02:28:05;;;;;;;29.60;17.17;;;6.30;47.60;;;;;;4955448;29;20027;-77
2022/03/25 02:30:33;;;;;;;30.63;17.23;;;6.20;47.90;;;;;;4955719;29;20118;-78
2022/03/25 02:33:01;;;;;;;26.15;16.05;;;6.20;48.10;;;;;;4939948;29;20536;-77
2022/03/25 02:35:44;;;;;;;31.77;18.52;;;6.20;48.10;;;;;;4955483;29;20075;-77
2022/03/25 02:38:12;;;;;;;29.08;16.63;;;6.30;48.80;;;;;;4939320;29;20028;-77
2022/03/25 02:40:39;;;;;;;27.83;16.50;;;6.30;48.10;;;;;;4956511;29;20141;-76
2022/03/25 02:43:05;;;;;;;31.80;17.42;;;6.30;48.10;;;;;;4923214;29;20126;-76
2022/03/25 02:45:31;;;;;;;28.17;17.10;;;6.30;48.20;;;;;;4955291;29;20059;-76
2022/03/25 02:47:58;;;;;;;30.40;16.80;;;6.20;47.80;;;;;;4938995;29;20030;-76
2022/03/25 02:50:25;;;;;;;34.50;19.00;;;6.20;47.80;;;;;;4939279;29;20035;-76
2022/03/25 02:52:50;;;;;;;31.60;18.33;;;6.10;48.10;;;;;;4938984;29;20027;-76
2022/03/25 02:55:16;;;;;;;30.83;18.15;;;6.00;48.90;;;;;;4954921;29;20082;-76
2022/03/25 02:57:42;;;;;;;28.90;17.02;;;5.90;48.50;;;;;;4923241;29;20382;-78
2022/03/25 03:00:09;;;;;;;28.13;16.75;;;5.90;48.50;;;;;;4954731;29;20027;-78
2022/03/25 03:02:38;;;;;;;27.92;16.67;;;6.00;48.50;;;;;;4922622;29;20027;-78
2022/03/25 03:05:07;;;;;;;27.92;17.35;;;6.10;48.60;;;;;;4939008;29;20031;-78
2022/03/25 03:07:35;;;;;;;29.48;16.20;;;6.10;48.50;;;;;;4931786;29;20054;-78
2022/03/25 03:10:02;;;;;;;28.70;17.13;;;6.10;48.60;;;;;;4938671;29;20031;-78
2022/03/25 03:12:28;;;;;;;31.60;17.90;;;6.00;48.60;;;;;;4938634;29;20024;-77
2022/03/25 03:14:53;;;;;;;31.95;17.95;;;6.00;48.80;;;;;;4938426;29;20385;-78
2022/03/25 03:17:19;;;;;;;31.45;18.67;;;5.90;49.00;;;;;;4938404;29;20019;-77
2022/03/25 03:19:45;;;;;;;33.97;18.25;;;5.90;48.90;;;;;;4937786;29;20086;-77
2022/03/25 03:22:10;;;;;;;29.60;16.90;;;5.90;48.80;;;;;;4938339;29;20035;-77
2022/03/25 03:24:36;;;;;;;27.42;16.58;;;6.00;48.80;;;;;;4955805;29;20027;-77
2022/03/25 03:27:03;;;;;;;32.10;17.77;;;6.00;48.90;;;;;;4938539;29;20035;-77
2022/03/25 03:29:29;;;;;;;27.52;15.80;;;5.90;49.20;;;;;;4938495;29;20120;-78
2022/03/25 03:31:55;;;;;;;27.35;16.40;;;5.90;49.40;;;;;;4922865;29;20183;-78
2022/03/25 03:34:21;;;;;;;30.85;16.63;;;5.80;49.50;;;;;;4938667;29;20490;-77
2022/03/25 03:36:47;;;;;;;28.60;16.90;;;5.80;49.90;;;;;;4938456;29;20071;-77
2022/03/25 03:39:13;;;;;;;27.65;15.73;;;5.70;50.00;;;;;;4938216;29;20476;-77
2022/03/25 03:41:38;;;;;;;30.00;17.05;;;5.80;50.10;;;;;;4938383;29;20051;-78
2022/03/25 03:44:05;;;;;;;29.45;16.63;;;5.80;50.20;;;;;;4938377;29;20027;-77
2022/03/25 03:46:31;;;;;;;30.38;17.95;;;5.70;50.30;;;;;;4938585;29;20039;-78
2022/03/25 03:48:57;;;;;;;29.17;17.50;;;5.60;50.30;;;;;;4938464;29;20027;-78
2022/03/25 03:51:23;;;;;;;27.20;16.13;;;5.60;50.40;;;;;;4922291;29;20090;-78
2022/03/25 03:53:48;;;;;;;26.60;15.77;;;5.60;50.50;;;;;;4937717;29;20074;-77
2022/03/25 03:56:14;;;;;;;28.83;16.35;;;5.60;50.60;;;;;;4938366;29;20384;-78
2022/03/25 03:58:40;;;;;;;26.77;16.13;;;5.50;50.80;;;;;;4938255;29;20538;-78
2022/03/25 04:01:05;;;;;;;26.30;16.45;;;5.50;51.10;;;;;;4937855;29;20023;-78
2022/03/25 04:03:31;;;;;;;27.08;16.77;;;5.50;51.20;;;;;;4937864;29;20027;-77
2022/03/25 04:05:57;;;;;;;22.30;14.75;;;5.60;51.20;;;;;;4937724;29;20125;-77
2022/03/25 04:08:23;;;;;;;26.27;15.75;;;5.60;51.10;;;;;;4937348;29;20105;-77
2022/03/25 04:10:49;;;;;;;27.73;17.15;;;5.60;50.90;;;;;;4938058;29;20428;-77
2022/03/25 04:13:14;;;;;;;28.50;16.17;;;5.60;51.10;;;;;;4937594;29;20038;-77
2022/03/25 04:15:40;;;;;;;28.63;16.58;;;5.60;51.20;;;;;;4937821;29;20078;-77
2022/03/25 04:18:06;;;;;;;32.35;18.35;;;5.60;50.90;;;;;;4948250;29;20121;-78
2022/03/25 04:20:32;;;;;;;28.52;15.75;;;5.60;50.70;;;;;;4947389;29;20031;-77
2022/03/25 04:22:58;;;;;;;26.00;16.95;;;5.60;50.50;;;;;;4955059;29;20030;-77
2022/03/25 04:25:24;;;;;;;31.98;17.05;;;5.60;50.70;;;;;;4937511;29;20032;-78
2022/03/25 04:27:53;;;;;;;27.45;16.50;;;5.50;50.80;;;;;;4937658;29;20464;-77
2022/03/25 04:30:31;;;;;;;30.35;16.98;;;5.50;50.90;;;;;;4939721;29;20027;-78
2022/03/25 04:32:58;;;;;;;29.00;17.88;;;5.40;51.40;;;;;;4941160;29;20056;-77
2022/03/25 04:35:25;;;;;;;32.97;18.23;;;5.40;51.50;;;;;;4941418;29;20023;-77
2022/03/25 04:37:51;;;;;;;34.42;18.23;;;5.30;51.60;;;;;;4941386;29;20114;-77
2022/03/25 04:40:19;;;;;;;27.55;17.80;;;5.20;51.70;;;;;;4941121;29;20114;-77
2022/03/25 04:42:46;;;;;;;29.63;17.25;;;5.20;51.70;;;;;;4940981;29;20039;-79
2022/03/25 04:45:11;;;;;;;34.83;17.95;;;5.20;51.70;;;;;;4941242;29;20024;-79
2022/03/25 04:47:37;;;;;;;31.75;18.23;;;5.10;51.80;;;;;;4940657;29;20023;-78
2022/03/25 04:50:03;;;;;;;30.88;17.42;;;5.10;52.10;;;;;;4940599;29;20024;-78
2022/03/25 04:52:28;;;;;;;33.92;17.55;;;5.10;52.10;;;;;;4940611;29;20059;-78
2022/03/25 04:54:55;;;;;;;30.52;18.10;;;5.00;52.20;;;;;;4941323;29;20419;-78
2022/03/25 04:57:21;;;;;;;30.17;18.60;;;5.00;52.40;;;;;;4941046;29;20122;-77
2022/03/25 04:59:47;;;;;;;33.97;20.27;;;5.00;52.40;;;;;;4941004;29;20188;-78
2022/03/25 05:02:13;;;;;;;34.42;18.13;;;5.00;52.40;;;;;;4941078;29;20173;-78
2022/03/25 05:04:39;;;;;;;34.90;19.55;;;4.90;52.60;;;;;;4941164;29;20027;-78
2022/03/25 05:07:05;;;;;;;32.38;18.55;;;5.00;52.40;;;;;;4957739;29;20050;-77
2022/03/25 05:09:30;;;;;;;33.60;17.90;;;5.00;52.20;;;;;;4941149;29;20082;-78
2022/03/25 05:11:56;;;;;;;31.90;18.35;;;5.00;52.20;;;;;;4941107;29;20039;-78
2022/03/25 05:14:22;;;;;;;32.72;18.95;;;5.00;52.10;;;;;;4957060;29;20157;-78
2022/03/25 05:16:52;;;;;;;34.15;19.08;;;5.00;52.30;;;;;;4956997;29;20554;-78
2022/03/25 05:19:20;;;;;;;29.60;18.20;;;4.90;52.30;;;;;;4940755;29;20034;-78
2022/03/25 05:21:45;;;;;;;31.45;18.55;;;4.90;52.30;;;;;;4940531;29;20122;-77
2022/03/25 05:24:11;;;;;;;35.92;18.98;;;5.00;52.30;;;;;;4940261;29;20111;-77
2022/03/25 05:26:37;;;;;;;32.30;18.48;;;5.00;52.30;;;;;;4940349;29;20094;-77
2022/03/25 05:29:03;;;;;;;31.85;18.20;;;5.00;52.30;;;;;;4956714;29;20024;-77
2022/03/25 05:31:29;;;;;;;32.38;18.55;;;5.00;52.30;;;;;;4956556;29;20122;-77
2022/03/25 05:33:55;;;;;;;38.17;19.05;;;4.90;52.50;;;;;;4940397;29;20027;-76
2022/03/25 05:36:20;;;;;;;33.08;19.20;;;4.90;52.60;;;;;;4956215;29;20082;-76
2022/03/25 05:38:46;;;;;;;34.38;18.75;;;5.00;52.30;;;;;;4956550;29;20030;-77
2022/03/25 05:41:12;;;;;;;30.67;17.88;;;5.00;52.20;;;;;;4956875;28;20118;-77
2022/03/25 05:43:38;;;;;;;34.63;18.48;;;5.00;51.90;;;;;;4940096;29;20075;-78
2022/03/25 05:46:03;;;;;;;39.13;19.63;;;5.00;52.00;;;;;;4956130;29;20391;-78
2022/03/25 05:48:29;;;;;;;32.45;18.42;;;5.00;52.00;;;;;;4956225;29;20019;-78
2022/03/25 05:50:55;;;;;;;39.28;20.10;;;5.10;51.70;;;;;;4956253;29;20054;-78
2022/03/25 05:53:21;;;;;;;34.38;18.85;;;5.10;51.70;;;;;;4957420;29;20046;-77
2022/03/25 05:55:46;;;;;;;31.15;18.17;;;5.00;51.40;;;;;;4955739;29;20086;-77
2022/03/25 05:58:12;;;;;;;36.20;19.75;;;5.00;51.10;;;;;;4940099;29;20588;-77
2022/03/25 06:00:38;;;;;;;34.85;19.80;;;5.00;51.30;;;;;;4955985;29;20483;-76
2022/03/25 06:03:05;;;;;;;35.40;20.63;;;5.00;51.40;;;;;;4939804;29;20086;-76
2022/03/25 06:05:31;;;;;;;34.08;18.38;;;5.10;51.30;;;;;;4957128;29;20031;-76
2022/03/25 06:07:56;;;;;;;31.88;17.90;;;5.30;51.10;;;;;;4939875;29;20055;-76
2022/03/25 06:10:23;;;;;;;35.95;19.65;;;5.40;50.70;;;;;;4955757;29;20122;-76
2022/03/25 06:12:48;;;;;;;36.03;19.73;;;5.40;50.80;;;;;;4939338;29;20028;-76
2022/03/25 06:15:14;;;;;;;34.42;19.33;;;5.50;50.50;;;;;;4955164;29;20086;-76
2022/03/25 06:17:44;;;;;;;33.88;19.92;;;5.50;50.70;;;;;;4939141;29;20126;-77
2022/03/25 06:20:12;;;;;;;35.15;19.27;;;5.60;50.30;;;;;;4939448;29;20471;-77
2022/03/25 06:22:40;;;;;;;38.30;21.17;;;5.80;50.10;;;;;;4939294;29;20030;-77
2022/03/25 06:25:09;;;;;;;33.58;19.25;;;5.90;49.90;;;;;;4956223;29;20036;-76
2022/03/25 06:27:35;;;;;;;33.60;19.80;;;6.00;49.40;;;;;;4938909;29;20122;-76
2022/03/25 06:30:01;;;;;;;38.25;20.13;;;6.10;49.00;;;;;;4954095;29;20506;-77
2022/03/25 06:32:26;;;;;;;33.13;19.20;;;6.20;48.60;;;;;;4958065;29;20384;-78
2022/03/25 06:34:54;;;;;;;37.05;18.83;;;6.30;48.40;;;;;;4940364;29;20035;-77
2022/03/25 06:37:21;;;;;;;38.47;20.33;;;6.40;48.10;;;;;;4939571;29;20094;-78
2022/03/25 06:39:47;;;;;;;32.67;17.92;;;6.60;47.80;;;;;;4924112;29;20054;-77
2022/03/25 06:42:13;;;;;;;38.20;20.55;;;6.80;47.50;;;;;;4957301;29;20043;-77
2022/03/25 06:44:38;;;;;;;35.53;19.77;;;6.90;47.50;;;;;;4955888;29;20026;-76
2022/03/25 06:47:04;;;;;;;33.65;19.65;;;7.00;46.70;;;;;;4955657;28;20078;-77
2022/03/25 06:49:32;;;;;;;30.83;19.30;;;7.10;46.40;;;;;;4954820;29;20121;-76
2022/03/25 06:51:58;;;;;;;36.70;20.38;;;7.20;45.80;;;;;;4939231;29;20035;-76
2022/03/25 06:54:23;;;;;;;36.45;19.75;;;7.30;45.00;;;;;;4923177;29;20053;-77
2022/03/25 06:56:49;;;;;;;35.60;19.70;;;7.40;45.10;;;;;;4938958;29;20031;-79
2022/03/25 06:59:15;;;;;;;36.58;21.35;;;7.50;45.00;;;;;;4939153;29;20050;-79
2022/03/25 07:01:41;;;;;;;27.25;17.83;;;7.60;44.60;;;;;;4938622;29;20035;-77
2022/03/25 07:04:07;;;;;;;36.15;20.52;;;7.70;44.10;;;;;;4954924;29;20031;-79
2022/03/25 07:06:37;;;;;;;36.17;20.85;;;7.70;43.80;;;;;;4924096;29;20476;-81
2022/03/25 07:09:03;;;;;;;39.05;19.98;;;7.80;43.50;;;;;;4939389;29;20176;-74
2022/03/25 07:11:29;;;;;;;37.63;21.08;;;7.90;43.30;;;;;;4955328;29;20070;-75
2022/03/25 07:13:56;;;;;;;42.97;20.80;;;8.10;42.90;;;;;;4954655;29;20178;-77
2022/03/25 07:16:21;;;;;;;32.72;15.77;;;8.40;57.30;;;;;;4954686;29;20031;-75
2022/03/25 07:18:47;;;;;;;40.13;18.70;;;8.70;59.40;;;;;;4938556;29;20023;-75
2022/03/25 07:21:13;;;;;;;34.70;22.40;;;9.30;63.70;;;;;;4954755;29;20507;-75
2022/03/25 07:23:39;;;;;;;31.45;17.35;;;9.80;56.20;;;;;;4938694;29;20019;-76
2022/03/25 07:26:05;;;;;;;36.55;19.75;;;10.30;55.90;;;;;;4954273;29;20023;-76
2022/03/25 07:28:32;;;;;;;34.20;20.67;;;10.70;52.40;;;;;;4956609;29;20114;-77
2022/03/25 07:30:57;;;;;;;36.65;22.70;;;10.80;46.10;;;;;;4938736;29;20082;-76
2022/03/25 07:33:23;;;;;;;34.35;21.38;;;10.70;42.70;;;;;;4938675;29;20019;-78
2022/03/25 07:35:49;;;;;;;37.53;21.77;;;10.50;41.30;;;;;;4955240;29;20023;-75
2022/03/25 07:38:14;;;;;;;40.40;22.25;;;10.50;39.90;;;;;;4954704;29;20019;-79
2022/03/25 07:40:40;;;;;;;37.20;20.80;;;10.50;39.00;;;;;;4939555;29;20027;-77
2022/03/25 07:43:06;;;;;;;36.03;20.00;;;10.40;38.20;;;;;;4938545;29;20027;-76
2022/03/25 07:45:31;;;;;;;31.05;19.50;;;10.30;38.60;;;;;;4938696;29;20027;-77
2022/03/25 07:47:57;;;;;;;33.30;21.00;;;10.40;38.90;;;;;;4955107;29;20069;-77
2022/03/25 07:50:24;;;;;;;31.80;19.38;;;10.40;39.20;;;;;;4923527;29;20027;-80
2022/03/25 07:52:50;;;;;;;34.78;20.02;;;10.60;38.60;;;;;;4954970;29;20475;-77
2022/03/25 07:55:18;;;;;;;44.08;20.58;;;10.70;38.30;;;;;;4938949;29;20075;-82
2022/03/25 07:57:45;;;;;;;35.75;18.65;;;10.90;37.80;;;;;;4938654;29;20027;-78
2022/03/25 08:00:12;;;;;;;29.83;18.58;;;11.10;38.00;;;;;;4938614;29;20046;-81
2022/03/25 08:02:39;;;;;;;37.78;22.77;;;11.30;38.10;;;;;;4955322;29;20058;-77
2022/03/25 08:05:06;;;;;;;38.83;21.85;;;11.40;38.60;;;;;;4922806;29;20488;-81
2022/03/25 08:07:32;;;;;;;32.92;19.77;;;11.50;38.80;;;;;;4938794;29;20058;-76
2022/03/25 08:09:58;;;;;;;41.88;22.98;;;11.60;38.90;;;;;;4922527;29;20027;-78
2022/03/25 08:12:23;;;;;;;31.85;20.55;;;11.70;39.40;;;;;;4937541;29;20031;-77
2022/03/25 08:14:49;;;;;;;32.22;20.25;;;11.90;39.50;;;;;;4953790;29;20494;-78
2022/03/25 08:17:16;;;;;;;36.63;20.20;;;11.90;38.90;;;;;;4922203;29;20031;-76
2022/03/25 08:19:42;;;;;;;33.85;20.15;;;12.10;38.90;;;;;;4954165;29;20034;-76
2022/03/25 08:22:07;;;;;;;36.85;21.00;;;12.10;38.60;;;;;;4921953;29;20116;-75
2022/03/25 08:30:01;;;;;;;42.63;23.77;;;12.30;37.90;;;;;;4955666;29;20439;-77
2022/03/25 08:32:26;;;;;;;42.47;20.98;;;12.30;36.80;;;;;;4953702;29;20039;-76
2022/03/25 08:34:52;;;;;;;41.58;23.02;;;12.50;36.50;;;;;;4937454;29;20027;-75
2022/03/25 08:37:17;;;;;;;39.70;23.80;;;12.50;35.60;;;;;;4953304;29;20419;-76
2022/03/25 08:39:43;;;;;;;51.00;24.45;;;12.60;35.40;;;;;;4953053;29;20031;-76
2022/03/25 08:42:10;;;;;;;48.35;24.25;;;12.60;34.70;;;;;;4954482;29;20035;-75
2022/03/25 08:44:36;;;;;;;38.58;23.30;;;12.70;34.80;;;;;;4937372;29;20024;-80
2022/03/25 08:47:01;;;;;;;40.00;22.77;;;12.90;33.60;;;;;;4936707;29;20086;-76
2022/03/25 08:49:28;;;;;;;40.97;23.83;;;12.90;32.30;;;;;;4936951;29;20024;-77
2022/03/25 08:51:54;;;;;;;49.80;24.45;;;13.10;32.30;;;;;;4936933;29;20023;-75
2022/03/25 08:54:19;;;;;;;36.17;22.45;;;13.20;32.90;;;;;;4952777;29;20023;-75
2022/03/25 08:56:45;;;;;;;44.35;22.95;;;13.30;34.50;;;;;;4952951;29;20168;-76
2022/03/25 08:59:10;;;;;;;41.17;22.60;;;13.50;33.60;;;;;;4936674;29;20027;-76
2022/03/25 09:01:36;;;;;;;32.25;20.92;;;13.70;33.90;;;;;;4936920;29;20035;-76
2022/03/25 09:04:02;;;;;;;36.63;22.52;;;13.70;33.80;;;;;;4936499;29;20023;-75
2022/03/25 09:06:28;;;;;;;38.15;22.40;;;13.90;33.70;;;;;;4952893;29;20035;-75
2022/03/25 09:08:53;;;;;;;32.55;21.08;;;14.10;33.00;;;;;;4937222;29;20031;-75
2022/03/25 09:11:20;;;;;;;33.85;21.33;;;14.30;32.40;;;;;;4936826;29;20078;-76
2022/03/25 09:13:45;;;;;;;36.80;21.73;;;14.60;32.80;;;;;;4936686;29;20034;-76
2022/03/25 09:16:13;;;;;;;36.88;23.52;;;14.90;31.80;;;;;;4937187;29;20114;-75
2022/03/25 09:18:38;;;;;;;38.03;22.75;;;14.80;31.00;;;;;;4940603;29;20038;-75
2022/03/25 09:21:04;;;;;;;38.22;24.58;;;15.00;30.70;;;;;;4939847;29;20114;-76
2022/03/25 09:23:30;;;;;;;41.50;23.40;;;15.10;30.90;;;;;;4940312;29;20035;-75
2022/03/25 09:25:57;;;;;;;38.95;23.80;;;15.20;31.30;;;;;;4940281;29;20034;-76
2022/03/25 09:28:23;;;;;;;35.47;24.10;;;15.30;31.70;;;;;;4940366;29;20035;-75
2022/03/25 09:30:48;;;;;;;40.25;23.08;;;15.30;30.80;;;;;;4940276;29;20077;-75
2022/03/25 09:33:15;;;;;;;40.38;25.60;;;15.40;30.50;;;;;;4939948;29;20038;-76
2022/03/25 09:35:42;;;;;;;36.88;24.45;;;15.60;29.80;;;;;;4956092;29;20061;-75
2022/03/25 09:38:08;;;;;;;34.30;23.58;;;15.80;29.70;;;;;;4939833;29;20046;-75
2022/03/25 09:40:35;;;;;;;34.33;23.13;;;15.90;27.90;;;;;;4939713;29;20023;-75
2022/03/25 09:43:01;;;;;;;32.35;23.27;;;16.10;27.60;;;;;;4939617;29;20050;-74
2022/03/25 09:45:27;;;;;;;30.45;21.13;;;16.30;26.70;;;;;;4955682;29;20156;-74
2022/03/25 09:47:55;;;;;;;39.88;24.13;;;16.50;27.30;;;;;;4956861;29;20035;-74
2022/03/25 09:50:24;;;;;;;37.30;26.50;;;16.80;27.30;;;;;;4939798;29;20023;-75
2022/03/25 09:52:52;;;;;;;41.70;25.73;;;17.00;27.80;;;;;;4940006;29;20027;-75
2022/03/25 09:55:18;;;;;;;36.13;23.15;;;17.10;27.70;;;;;;4939502;29;20027;-75
2022/03/25 09:57:43;;;;;;;40.20;27.02;;;17.30;27.80;;;;;;4939844;29;20130;-75
2022/03/25 10:00:17;;;;;;;44.45;26.80;;;17.50;27.40;;;;;;4939688;29;20110;-75
2022/03/25 10:02:45;;;;;;;33.55;22.38;;;17.40;26.90;;;;;;4939277;29;20403;-75
2022/03/25 10:05:20;;;;;;;44.03;26.17;;;17.50;27.10;;;;;;4939525;29;20455;-75
2022/03/25 10:07:55;;;;;;;36.70;25.08;;;17.50;26.10;;;;;;4938989;29;20071;-76
2022/03/25 10:10:25;;;;;;;37.05;23.00;;;17.40;25.80;;;;;;4939335;29;20023;-74
2022/03/25 10:13:00;;;;;;;34.45;23.27;;;17.60;25.60;;;;;;4939594;29;20038;-75
2022/03/25 10:15:28;;;;;;;37.77;23.73;;;17.80;24.30;;;;;;4939075;29;20446;-75
2022/03/25 10:18:03;;;;;;;37.10;22.15;;;18.00;22.90;;;;;;4939308;29;20627;-75
2022/03/25 10:20:40;;;;;;;30.85;22.42;;;18.20;22.50;;;;;;4939465;29;20040;-74
2022/03/25 10:23:08;;;;;;;32.20;22.63;;;18.10;22.20;;;;;;4939354;29;20083;-75
2022/03/25 10:25:49;;;;;;;30.40;23.17;;;18.40;22.10;;;;;;4939073;29;20078;-78
2022/03/25 10:28:28;;;;;;;34.00;22.98;;;18.40;21.50;;;;;;4955977;28;20035;-78
2022/03/25 10:30:57;;;;;;;31.75;22.02;;;18.70;21.50;;;;;;4939015;29;20439;-79
2022/03/25 10:33:32;;;;;;;32.30;21.58;;;18.50;20.70;;;;;;4939157;29;20455;-78
2022/03/25 10:36:15;;;;;;;37.00;23.13;;;18.60;21.00;;;;;;4939313;29;20460;-80
2022/03/25 10:39:00;;;;;;;30.23;22.80;;;19.00;21.50;;;;;;4934621;29;20130;-80
2022/03/25 10:41:38;;;;;;;33.22;23.33;;;19.20;20.30;;;;;;4938863;29;20105;-78
2022/03/25 10:44:05;;;;;;;33.42;22.88;;;19.40;20.00;;;;;;4939054;29;20114;-79
2022/03/25 10:46:49;;;;;;;34.05;23.73;;;19.60;20.20;;;;;;4938509;29;20050;-80
2022/03/25 10:49:16;;;;;;;34.00;23.52;;;19.60;20.00;;;;;;4938790;29;20023;-82
2022/03/25 10:51:57;;;;;;;33.70;23.27;;;19.60;19.90;;;;;;4922918;29;20396;-81
2022/03/25 10:54:27;;;;;;;35.22;23.52;;;19.50;20.20;;;;;;4939097;29;20059;-80
2022/03/25 10:56:59;;;;;;;33.55;22.88;;;19.30;20.10;;;;;;4938822;29;20035;-80
2022/03/25 10:59:33;;;;;;;30.15;21.45;;;19.60;20.00;;;;;;4948163;23;20023;-80
2022/03/25 11:02:04;;;;;;;29.15;21.70;;;19.80;19.90;;;;;;4957796;28;20043;-82
2022/03/25 11:07:24;;;;;;;31.80;22.10;;;20.20;18.80;;;;;;4980910;23;20061;-78
2022/03/25 11:09:51;;;;;;;32.25;20.38;;;20.40;18.30;;;;;;4974451;28;20027;-79
2022/03/25 11:12:17;;;;;;;33.30;22.52;;;20.70;17.70;;;;;;4974856;28;20030;-80
2022/03/25 11:14:43;;;;;;;33.05;21.80;;;20.60;16.70;;;;;;4974676;28;20030;-79
2022/03/25 11:17:10;;;;;;;26.60;20.25;;;20.40;16.80;;;;;;4975019;28;20027;-80
2022/03/25 11:19:37;;;;;;;28.40;20.15;;;20.30;17.00;;;;;;4974668;28;20023;-80
2022/03/25 11:22:04;;;;;;;28.05;20.45;;;20.60;16.60;;;;;;4975107;28;20442;-80
2022/03/25 11:24:39;;;;;;;29.73;19.10;;;20.80;16.00;;;;;;4974893;28;20027;-79
2022/03/25 11:27:30;;;;;;;30.52;20.13;;;20.90;15.30;;;;;;4958374;28;20061;-79
2022/03/25 11:30:03;;;;;;;25.48;19.83;;;21.20;15.30;;;;;;4977462;28;20027;-78
2022/03/25 11:32:29;;;;;;;27.13;20.35;;;21.40;15.60;;;;;;4976069;28;20085;-78
2022/03/25 11:34:54;;;;;;;28.08;20.17;;;21.60;15.40;;;;;;4974830;28;20031;-79
2022/03/25 11:37:28;;;;;;;29.70;19.77;;;21.40;14.80;;;;;;4974614;28;20038;-79
2022/03/25 11:40:14;;;;;;;26.50;20.42;;;21.20;15.20;;;;;;4974787;28;20019;-87
2022/03/25 11:42:40;;;;;;;28.05;19.75;;;21.40;15.40;;;;;;4975208;28;20098;-83
2022/03/25 11:45:46;;;;;;;24.83;20.05;;;21.80;15.40;;;;;;4975501;28;20565;-79
2022/03/25 11:48:20;;;;;;;27.83;20.57;;;22.30;15.10;;;;;;5018567;23;20034;-83
2022/03/25 11:50:45;;;;;;;25.50;19.85;;;22.50;14.10;;;;;;4954451;29;20282;-86
2022/03/25 11:53:11;;;;;;;28.45;21.27;;;22.50;13.80;;;;;;4938269;29;20417;-83
2022/03/25 11:55:53;;;;;;;24.80;20.05;;;22.60;13.90;;;;;;4939109;29;20349;-88
2022/03/25 11:58:19;;;;;;;27.73;20.50;;;22.80;13.10;;;;;;4938818;29;20405;-80
2022/03/25 12:00:48;;;;;;;26.70;20.75;;;22.90;13.60;;;;;;4938638;29;20429;-86
2022/03/25 12:05:58;;;;;;;26.92;20.17;;;23.40;13.30;;;;;;4990548;28;20057;-79
2022/03/25 12:08:31;;;;;;;30.10;19.42;;;23.80;12.90;;;;;;4993419;28;20177;-80
2022/03/25 12:11:00;;;;;;;25.13;19.35;;;24.20;12.60;;;;;;4993346;28;20031;-77
2022/03/25 12:13:52;;;;;;;27.95;18.80;;;24.40;12.20;;;;;;4976082;28;20471;-76
2022/03/25 12:16:49;;;;;;;27.60;18.80;;;24.40;11.50;;;;;;4968183;28;20036;-79
2022/03/25 12:19:26;;;;;;;23.33;18.75;;;24.60;11.40;;;;;;4993370;28;20026;-78
2022/03/25 12:21:59;;;;;;;30.88;20.63;;;24.60;11.00;;;;;;4975986;28;20034;-80
2022/03/25 12:24:25;;;;;;;26.02;19.75;;;24.30;10.70;;;;;;4993273;28;20034;-78
2022/03/25 12:27:02;;;;;;;29.55;20.08;;;23.10;11.00;;;;;;4975436;28;20438;-78
2022/03/25 12:29:35;;;;;;;24.67;19.45;;;22.50;11.90;;;;;;4975587;28;20485;-74
2022/03/25 12:32:02;;;;;;;22.98;19.00;;;22.50;11.90;;;;;;4992777;28;20043;-74
2022/03/25 12:34:49;;;;;;;25.48;18.80;;;22.70;12.00;;;;;;4975766;28;20029;-77
2022/03/25 12:37:53;;;;;;;25.77;20.10;;;23.10;12.50;;;;;;4993225;28;20101;-76
2022/03/25 12:40:25;;;;;;;24.67;18.45;;;23.50;11.70;;;;;;4954056;28;20039;-75
2022/03/25 12:42:58;;;;;;;22.63;17.45;;;23.80;11.80;;;;;;4975401;28;20026;-76
2022/03/25 12:45:34;;;;;;;24.95;18.23;;;24.10;11.60;;;;;;4976039;28;20027;-75
2022/03/25 12:48:16;;;;;;;22.33;18.00;;;24.60;12.20;;;;;;4975960;28;20030;-82